This is the latest recevied weather packets stored in our database for station/object G6LTT-13. If no packets are shown the sender has not sent any weather packets the latest 10 day(s).
| Time | Temp. | Humidity | Pressure | Rain* | Wind** | Luminosity | Snow |
|---|---|---|---|---|---|---|---|
| 1787736107 | 23.33° C | 69% | 1041.5 hPa | 0 mm | - | - | - |
| 1787734307 | 22.22° C | 72% | 1041.6 hPa | 0 mm | - | - | - |
| 1787732507 | 21.67° C | 76% | 1041.6 hPa | 0 mm | - | - | - |
| 1787730709 | 19.44° C | 82% | 1041.4 hPa | 0 mm | - | - | - |
| 1787728907 | 18.89° C | 85% | 1041.3 hPa | 0 mm | - | - | - |
| 1787727107 | 17.78° C | 88% | 1041.3 hPa | 0 mm | - | - | - |
| 1787725307 | 17.78° C | 87% | 1041 hPa | 0 mm | - | - | - |
| 1787723507 | 17.22° C | 88% | 1040.9 hPa | 0 mm | - | - | - |
| 1787721707 | 17.22° C | 87% | 1040.9 hPa | 0 mm | - | - | - |
| 1787719907 | 17.22° C | 86% | 1040.4 hPa | 0 mm | - | - | - |
| 1787718107 | 17.22° C | 85% | 1040.5 hPa | 0 mm | - | - | - |
| 1787716307 | 17.22° C | 84% | 1040.3 hPa | 0 mm | - | - | - |
| 1787714507 | 17.22° C | 83% | 1040.3 hPa | 0 mm | - | - | - |
| 1787712707 | 17.22° C | 81% | 1040.5 hPa | 0 mm | - | - | - |
| 1787710907 | 17.22° C | 81% | 1040.7 hPa | 0 mm | - | - | - |
| 1787709107 | 17.22° C | 80% | 1040.4 hPa | 0 mm | - | - | - |
| 1787707307 | 17.78° C | 79% | 1040.5 hPa | 0 mm | - | - | - |
| 1787705507 | 17.78° C | 78% | 1040.8 hPa | 0 mm | - | - | - |
| 1787703707 | 17.78° C | 78% | 1041 hPa | 0 mm | - | - | - |
| 1787701907 | 17.78° C | 77% | 1041.2 hPa | 0 mm | - | - | - |
| 1787700107 | 17.78° C | 76% | 1041.1 hPa | 0 mm | - | - | - |
| 1787698307 | 17.78° C | 76% | 1041.2 hPa | 0 mm | - | - | - |
| 1787696507 | 18.33° C | 76% | 1041.1 hPa | 0 mm | - | - | - |
| 1787694707 | 18.33° C | 75% | 1041.2 hPa | 0 mm | - | - | - |
| 1787692907 | 18.33° C | 74% | 1041.3 hPa | 0 mm | - | - | - |
* Rain latest hour (hover to see other rain measurements)
** Current wind speed in m/s (hover to see current wind gust speed)